• Join FlightAware (Why Join?)
  • Login
  • US Flag 
 
07:13PM EST


 

Airport Tracker/Info


-or-


 

Live Flight TrackerFlight Track Log ✈ DLH2703 ✈ 30-Apr-2013 ✈ EDDH / HAM - EDDL / DUS

Flight Track Log - Related Links

Times and Time Zones

All times are in EDT time to prevent confusion due to time zone crossing. See the DLH2703 flight status page for this flight to view local times or setup timezone preferences in your user account.

Time Position Orientation Groundspeed Altitude Reporting Facility
EDT Latitude Longitude Course Direction KTS MPH feet Rate Location/Type
02:28AM 52.9051 8.9398 221° Southwest  Level Estimated
02:29AM 52.8387 8.8462 220° Southwest  Level Estimated
02:30AM 52.7723 8.7529 220° Southwest  Level Estimated
02:31AM 52.7057 8.6599 220° Southwest  Level Estimated
02:32AM 52.6391 8.5672 220° Southwest  Level Estimated
02:33AM 52.5724 8.4748 220° Southwest  Level Estimated
02:34AM 52.5057 8.3826 220° Southwest  Level Estimated
02:35AM 52.4389 8.2907 220° Southwest  Level Estimated
02:36AM 52.3720 8.1992 220° Southwest  Level Estimated
02:37AM 52.3050 8.1078 220° Southwest  Level Estimated
02:38AM 52.2380 8.0168 220° Southwest  Level Estimated
02:39AM 52.1709 7.9260 220° Southwest  Level Estimated
02:40AM 52.1037 7.8355 220° Southwest  Level Estimated
02:41AM 52.0365 7.7453 220° Southwest  Level Estimated
02:42AM 51.9692 7.6554 219° Southwest  Level Estimated
02:43AM 51.9018 7.5657 219° Southwest  Level Estimated
02:44AM 51.8344 7.4763 219° Southwest  Level Estimated
02:45AM 51.7668 7.3871 219° Southwest  Level Estimated
02:46AM 51.6993 7.2983 219° Southwest  Level Estimated
02:47AM 51.6316 7.2097 219° Southwest  Level Estimated
02:48AM 51.5639 7.1213 219° Southwest  Level Estimated
02:49AM 51.4961 7.0332 219° Southwest  Level Estimated
02:50AM 51.4283 6.9454 219° Southwest  Level Estimated
02:51AM 51.3604 6.8578 219° Southwest  Level Estimated
02:52AM 51.2924 6.7705 219° Southwest  Level Estimated
02:53AM 51.2895 6.7668 219° Southwest  Level Estimated
02:54AM 51.2895 6.7668 314° West  Level Estimated
02:55AM 51.2895 6.7668 46° Northeast  Level Estimated
02:56AM 51.2895 6.7668 314° West  Level Estimated
02:57AM 51.2895 6.7668 46° Northeast  Level Estimated
02:58AM 51.2895 6.7668 314° West  Level Estimated
02:59AM 51.2895 6.7668 46° Northeast  Level Estimated
03:00AM 51.2895 6.7668 314° West  Level Estimated
03:01AM 51.2895 6.7668 46° Northeast  Level Estimated
03:02AM 51.2895 6.7668 314° West  Level Estimated
03:03AM 51.2895 6.7668 46° Northeast  Level Estimated
03:04AM 51.2895 6.7668 314° West  Level Estimated
03:05AM 51.2895 6.7668 46° Northeast  Level Estimated
03:06AM 51.2895 6.7668 314° West  Level Estimated
03:07AM 51.2895 6.7668 46° Northeast  Level Estimated
03:08AM 51.2895 6.7668 314° West  Level Estimated